Time;durP1;ratioP1;P1;durP2;ratioP2;P2;SDS_P1;SDS_P2;PMS_P1;PMS_P2;Temp;Humidity;BMP_temperature;BMP_pressure;BME280_temperature;BME280_humidity;BME280_pressure;Samples;Min_cycle;Max_cycle;Signal;HPM_P1;HPM_P2
2022/06/06 00:02:28;;;;;;;2.22;1.70;;;13.30;99.90;;;;;;5070557;28;20488;-79
2022/06/06 00:04:57;;;;;;;1.80;1.60;;;13.30;99.90;;;;;;5070319;28;21272;-79
2022/06/06 00:07:25;;;;;;;1.85;1.70;;;13.30;99.90;;;;;;5071110;28;20056;-79
2022/06/06 00:09:53;;;;;;;4.97;1.40;;;13.30;99.90;;;;;;5068964;28;20036;-79
2022/06/06 00:12:23;;;;;;;1.77;1.67;;;13.30;99.90;;;;;;5070862;28;20048;-79
2022/06/06 00:14:51;;;;;;;3.63;2.33;;;13.30;99.90;;;;;;5070431;28;20056;-79
2022/06/06 00:17:18;;;;;;;8.00;3.10;;;13.30;99.90;;;;;;5070425;28;20415;-82
2022/06/06 00:19:46;;;;;;;1.48;1.38;;;13.20;99.90;;;;;;5069857;28;20051;-81
2022/06/06 00:22:14;;;;;;;3.75;2.60;;;13.20;99.90;;;;;;5070406;28;20052;-82
2022/06/06 00:24:42;;;;;;;3.22;1.70;;;13.20;99.90;;;;;;5062005;28;20047;-82
2022/06/06 00:27:10;;;;;;;7.90;2.15;;;13.20;99.90;;;;;;5090533;28;20050;-83
2022/06/06 00:29:38;;;;;;;2.25;2.08;;;13.20;99.90;;;;;;5089886;28;20059;-83
2022/06/06 00:34:52;;;;;;;3.03;2.20;;;13.20;99.90;;;;;;5090168;28;20123;-84
2022/06/06 00:37:30;;;;;;;3.17;2.20;;;13.30;99.90;;;;;;5090255;28;20051;-83
2022/06/06 00:39:58;;;;;;;1.98;1.80;;;13.30;99.90;;;;;;5071779;28;20056;-83
2022/06/06 00:42:30;;;;;;;1.65;1.55;;;13.30;99.90;;;;;;5072261;28;20052;-83
2022/06/06 00:45:16;;;;;;;6.97;6.30;;;13.30;99.90;;;;;;5090379;28;20036;-83
2022/06/06 00:47:58;;;;;;;3.60;1.70;;;13.30;99.90;;;;;;5072650;28;20044;-83
2022/06/06 00:50:35;;;;;;;;;;;13.30;99.90;;;;;;5090465;28;20040;-81
2022/06/06 00:53:03;;;;;;;2.75;2.55;;;13.30;99.90;;;;;;5090075;28;19923;-82
2022/06/06 00:55:37;;;;;;;2.58;1.77;;;13.30;99.90;;;;;;5090075;28;20059;-82
2022/06/06 00:58:10;;;;;;;3.78;2.13;;;13.30;99.90;;;;;;5071761;28;20043;-82
2022/06/06 01:00:39;;;;;;;7.40;2.95;;;13.30;99.90;;;;;;5089910;28;20056;-80
2022/06/06 01:03:09;;;;;;;2.50;2.30;;;13.20;99.90;;;;;;5091014;28;20048;-83
2022/06/06 01:05:38;;;;;;;1.85;1.75;;;13.20;99.90;;;;;;5090441;28;20044;-84
2022/06/06 01:08:07;;;;;;;3.10;2.15;;;13.20;99.90;;;;;;5090675;28;20048;-83
2022/06/06 01:10:35;;;;;;;4.35;1.80;;;13.10;99.90;;;;;;5089550;28;20048;-83
2022/06/06 01:13:08;;;;;;;2.63;2.10;;;13.10;99.90;;;;;;5090532;28;20040;-83
2022/06/06 01:15:44;;;;;;;2.75;2.30;;;13.10;99.90;;;;;;5091082;28;20368;-83
2022/06/06 01:18:31;;;;;;;2.50;2.35;;;13.10;99.90;;;;;;5089075;28;20491;-82
2022/06/06 01:21:29;;;;;;;4.03;2.53;;;13.10;99.90;;;;;;5069945;28;20044;-83
2022/06/06 01:24:20;;;;;;;4.97;2.00;;;13.20;99.90;;;;;;5070778;28;20071;-83
2022/06/06 01:27:08;;;;;;;2.17;2.00;;;13.20;99.90;;;;;;5087228;28;20048;-83
2022/06/06 01:29:44;;;;;;;1.92;1.45;;;13.20;99.90;;;;;;5069449;28;20051;-82
2022/06/06 01:32:16;;;;;;;2.28;2.08;;;13.20;99.90;;;;;;5058048;28;20052;-81
2022/06/06 01:34:48;;;;;;;2.28;2.10;;;13.20;99.90;;;;;;5092368;28;20518;-82
2022/06/06 01:37:32;;;;;;;5.85;1.83;;;13.20;99.90;;;;;;5092677;28;20036;-82
2022/06/06 01:40:02;;;;;;;1.88;1.75;;;13.20;99.90;;;;;;5072758;28;20214;-82
2022/06/06 01:42:42;;;;;;;2.00;1.80;;;13.20;99.90;;;;;;5074523;28;20525;-83
2022/06/06 01:45:35;;;;;;;2.30;2.20;;;13.20;99.90;;;;;;5092552;28;20040;-83
2022/06/06 01:48:10;;;;;;;1.92;1.75;;;13.20;99.90;;;;;;5072865;28;20403;-81
2022/06/06 01:50:40;;;;;;;2.83;2.42;;;13.20;99.90;;;;;;5072024;28;20037;-83
2022/06/06 01:53:12;;;;;;;1.58;1.48;;;13.20;99.90;;;;;;5072249;28;20499;-82
2022/06/06 01:55:42;;;;;;;6.25;3.05;;;13.20;99.90;;;;;;5053215;28;20042;-82
2022/06/06 01:58:15;;;;;;;3.17;2.53;;;13.20;99.90;;;;;;5053690;28;20052;-83
2022/06/06 02:00:43;;;;;;;2.25;2.05;;;13.20;99.90;;;;;;5071924;28;20045;-84
2022/06/06 02:03:11;;;;;;;9.95;2.10;;;13.20;99.90;;;;;;5072436;28;20053;-82
2022/06/06 02:05:39;;;;;;;2.47;1.98;;;13.10;99.90;;;;;;5053641;28;20057;-81
2022/06/06 02:08:08;;;;;;;6.28;5.22;;;13.10;99.90;;;;;;5053915;28;20423;-83
2022/06/06 02:10:36;;;;;;;2.08;1.95;;;13.10;99.90;;;;;;5070495;28;20059;-83
2022/06/06 02:13:05;;;;;;;4.90;2.20;;;13.00;99.90;;;;;;5071526;28;20040;-83
2022/06/06 02:15:33;;;;;;;5.95;2.75;;;13.10;99.90;;;;;;5054085;28;20507;-83
2022/06/06 02:18:01;;;;;;;2.03;1.90;;;13.10;99.90;;;;;;5052786;28;20040;-83
2022/06/06 02:20:31;;;;;;;3.33;1.75;;;13.10;99.90;;;;;;5071655;28;20419;-82
2022/06/06 02:22:59;;;;;;;2.05;1.92;;;13.10;99.90;;;;;;5053890;28;20052;-83
2022/06/06 02:25:29;;;;;;;3.00;2.08;;;13.10;99.90;;;;;;5068215;28;20074;-83
2022/06/06 02:27:57;;;;;;;3.85;2.30;;;13.10;99.90;;;;;;5069849;28;20059;-83
2022/06/06 02:30:30;;;;;;;2.88;2.42;;;13.10;99.90;;;;;;5036772;28;20048;-81
2022/06/06 02:32:59;;;;;;;4.00;3.63;;;13.20;99.90;;;;;;5071397;28;20044;-83
2022/06/06 02:35:30;;;;;;;3.22;2.92;;;13.20;99.90;;;;;;5053371;28;20048;-83
2022/06/06 02:37:59;;;;;;;5.10;2.95;;;13.10;99.90;;;;;;5070248;28;20700;-82
2022/06/06 02:40:28;;;;;;;3.20;2.22;;;13.10;99.90;;;;;;5070283;28;20227;-83
2022/06/06 02:42:56;;;;;;;3.33;1.95;;;13.10;99.90;;;;;;5052478;28;20041;-82
2022/06/06 02:45:25;;;;;;;6.70;3.03;;;12.70;99.90;;;;;;5052813;28;20053;-83
2022/06/06 02:47:55;;;;;;;1.52;1.42;;;12.50;99.90;;;;;;5071045;28;20055;-83
2022/06/06 02:50:30;;;;;;;19.33;4.80;;;12.30;99.90;;;;;;5052533;28;20044;-82
2022/06/06 02:52:58;;;;;;;4.82;1.27;;;12.20;99.90;;;;;;5070902;28;20036;-83
2022/06/06 02:55:27;;;;;;;3.17;1.73;;;12.10;99.90;;;;;;5069913;28;20047;-82
2022/06/06 02:57:55;;;;;;;11.98;2.95;;;12.10;99.90;;;;;;5052268;28;20032;-83
2022/06/06 03:00:26;;;;;;;5.88;2.75;;;12.00;99.90;;;;;;5071621;28;20053;-82
2022/06/06 03:02:54;;;;;;;;;;;12.00;99.90;;;;;;5071036;28;20047;-82
2022/06/06 03:05:38;;;;;;;3.22;1.77;;;11.90;99.90;;;;;;5052164;28;19920;-82
2022/06/06 03:08:20;;;;;;;1.50;1.40;;;11.90;99.90;;;;;;5036316;28;20052;-83
2022/06/06 03:11:06;;;;;;;2.28;1.83;;;11.90;99.90;;;;;;5068792;28;20408;-82
2022/06/06 03:13:53;;;;;;;2.63;1.67;;;11.90;99.90;;;;;;5070571;28;20047;-81
2022/06/06 03:22:57;;;;;;;2.13;2.03;;;11.80;99.90;;;;;;5050339;28;20048;-80
2022/06/06 03:25:36;;;;;;;2.03;1.85;;;11.80;99.90;;;;;;5014743;28;20475;-83
2022/06/06 03:28:27;;;;;;;2.65;2.45;;;11.90;99.90;;;;;;5050019;28;20049;-84
2022/06/06 03:31:18;;;;;;;2.95;1.90;;;11.80;99.90;;;;;;5050114;28;20049;-84
2022/06/06 03:33:55;;;;;;;15.82;2.55;;;11.80;99.90;;;;;;5012949;28;20060;-83
2022/06/06 03:36:31;;;;;;;8.65;3.83;;;11.70;99.90;;;;;;5050198;28;20519;-84
2022/06/06 03:39:32;;;;;;;45.67;8.25;;;11.60;99.90;;;;;;5048206;28;20052;-82
2022/06/06 03:42:09;;;;;;;;;;;11.50;99.90;;;;;;5047679;28;20052;-83
2022/06/06 03:45:01;;;;;;;3.10;1.02;;;11.40;99.90;;;;;;5048271;28;19924;-82
2022/06/06 03:47:38;;;;;;;4.75;2.22;;;11.40;99.90;;;;;;5050342;28;20052;-85
2022/06/06 03:50:29;;;;;;;76.50;16.77;;;11.40;99.90;;;;;;5062315;28;20051;-83
2022/06/06 03:53:08;;;;;;;1.55;1.20;;;11.30;99.90;;;;;;5048945;28;20739;-85
2022/06/06 03:55:59;;;;;;;2.20;1.52;;;11.30;99.90;;;;;;5048855;28;20064;-84
2022/06/06 03:58:30;;;;;;;3.80;2.05;;;11.30;99.90;;;;;;5064501;28;20055;-84
2022/06/06 04:01:04;;;;;;;;;;;11.40;99.90;;;;;;5048747;28;20373;-85
2022/06/06 04:03:33;;;;;;;2.65;2.45;;;11.50;99.90;;;;;;5049929;28;19921;-84
2022/06/06 04:06:02;;;;;;;2.72;2.53;;;11.70;99.90;;;;;;5049132;28;20415;-84
2022/06/06 04:08:32;;;;;;;3.13;2.83;;;11.80;99.90;;;;;;5049602;28;20053;-84
2022/06/06 04:11:18;;;;;;;3.15;2.72;;;11.80;99.90;;;;;;5047961;28;20045;-84
2022/06/06 04:14:05;;;;;;;2.15;2.00;;;11.90;99.90;;;;;;5064577;28;20045;-84
2022/06/06 04:16:59;;;;;;;2.55;2.35;;;11.90;99.90;;;;;;5049803;28;20050;-84
2022/06/06 04:20:00;;;;;;;3.08;2.00;;;11.90;99.90;;;;;;5040309;28;20045;-83
2022/06/06 04:23:15;;;;;;;2.13;1.95;;;11.80;99.90;;;;;;5029553;28;20033;-84
2022/06/06 04:26:03;;;;;;;3.47;2.20;;;11.80;99.90;;;;;;5046261;28;20408;-84
2022/06/06 04:28:37;;;;;;;2.05;1.88;;;11.80;99.90;;;;;;5046885;28;20056;-84
2022/06/06 04:31:43;;;;;;;4.25;1.95;;;11.90;99.90;;;;;;5048584;28;20056;-83
2022/06/06 04:34:17;;;;;;;2.60;2.40;;;12.00;99.90;;;;;;5036164;28;20053;-83
2022/06/06 04:36:57;;;;;;;3.03;2.80;;;12.20;99.90;;;;;;5048502;28;20057;-83
2022/06/06 04:39:53;;;;;;;1.80;1.70;;;12.20;99.90;;;;;;5047497;28;20055;-82
2022/06/06 04:42:40;;;;;;;3.83;3.17;;;12.20;99.90;;;;;;5048807;28;20063;-83
2022/06/06 04:45:14;;;;;;;3.38;2.30;;;12.40;99.90;;;;;;5047324;28;20041;-84
2022/06/06 04:47:43;;;;;;;3.03;2.83;;;12.40;99.90;;;;;;5048930;28;20049;-84
2022/06/06 04:50:14;;;;;;;2.83;2.55;;;12.60;99.90;;;;;;5046868;28;20053;-84
2022/06/06 04:52:47;;;;;;;2.97;2.78;;;12.80;99.90;;;;;;5049004;28;20056;-84
2022/06/06 04:55:17;;;;;;;2.88;2.60;;;13.00;99.90;;;;;;5047705;28;20067;-83
2022/06/06 04:57:53;;;;;;;3.45;3.15;;;13.20;99.90;;;;;;5048434;28;20049;-84
2022/06/06 05:00:21;;;;;;;3.75;3.45;;;13.20;99.90;;;;;;5035503;28;20057;-83
2022/06/06 05:02:49;;;;;;;3.35;3.00;;;13.40;99.90;;;;;;5028831;28;20050;-84
2022/06/06 05:05:17;;;;;;;3.58;3.28;;;13.40;99.90;;;;;;5028337;28;20050;-83
2022/06/06 05:07:59;;;;;;;3.92;2.97;;;13.50;99.90;;;;;;5028656;28;20049;-84
2022/06/06 05:10:50;;;;;;;3.97;3.67;;;13.60;99.90;;;;;;5024854;28;20042;-84
2022/06/06 05:13:21;;;;;;;3.58;2.30;;;13.60;99.90;;;;;;5028414;28;20057;-82
2022/06/06 05:15:58;;;;;;;3.55;3.17;;;13.70;99.90;;;;;;4995243;28;20057;-83
2022/06/06 05:18:41;;;;;;;5.22;3.67;;;13.70;99.90;;;;;;5027984;28;20440;-82
2022/06/06 05:21:24;;;;;;;3.10;2.80;;;13.90;99.90;;;;;;5046841;28;20299;-84
2022/06/06 05:24:02;;;;;;;4.30;3.72;;;14.10;99.90;;;;;;5052190;28;20044;-83
2022/06/06 05:26:48;;;;;;;3.00;2.70;;;14.20;99.90;;;;;;5066866;28;20052;-84
2022/06/06 05:29:51;;;;;;;3.13;2.83;;;14.20;99.90;;;;;;5067869;28;20045;-83
2022/06/06 05:32:49;;;;;;;3.83;2.60;;;14.40;99.90;;;;;;5066137;28;20399;-82
2022/06/06 05:35:45;;;;;;;3.70;2.60;;;14.50;99.90;;;;;;5050033;28;20404;-83
2022/06/06 05:38:22;;;;;;;2.38;2.25;;;14.50;99.90;;;;;;5066546;28;20055;-83
2022/06/06 05:41:02;;;;;;;3.03;2.72;;;14.50;99.90;;;;;;5066442;28;20048;-83
2022/06/06 05:43:49;;;;;;;2.80;2.33;;;14.60;99.90;;;;;;5068434;28;20606;-82
2022/06/06 05:46:25;;;;;;;2.95;2.28;;;14.60;99.90;;;;;;5068325;28;20048;-82
2022/06/06 05:49:14;;;;;;;3.72;3.25;;;14.70;99.90;;;;;;5059873;28;20338;-83
2022/06/06 05:52:23;;;;;;;2.92;2.47;;;14.60;99.90;;;;;;5048120;28;20056;-84
2022/06/06 05:55:15;;;;;;;7.25;2.55;;;14.70;99.90;;;;;;5046509;28;20057;-82
2022/06/06 05:58:04;;;;;;;2.97;2.70;;;14.60;99.90;;;;;;5047624;28;20052;-83
2022/06/06 06:01:04;;;;;;;4.40;2.17;;;14.60;99.90;;;;;;5048167;28;20045;-83
2022/06/06 06:04:03;;;;;;;2.40;2.20;;;14.60;99.90;;;;;;5045659;28;20049;-83
2022/06/06 06:06:56;;;;;;;3.00;2.28;;;14.60;99.90;;;;;;5047528;28;20045;-82
2022/06/06 06:09:36;;;;;;;3.40;2.28;;;14.90;99.90;;;;;;5047581;28;20041;-82
2022/06/06 06:12:19;;;;;;;3.17;2.97;;;15.00;99.90;;;;;;5029544;28;20481;-83
2022/06/06 06:15:08;;;;;;;8.60;2.38;;;15.00;99.90;;;;;;5013468;28;20416;-82
2022/06/06 06:17:38;;;;;;;4.30;3.33;;;15.10;99.90;;;;;;5050260;28;20044;-82
2022/06/06 06:20:15;;;;;;;2.67;2.47;;;15.30;99.90;;;;;;5050075;28;20057;-81
2022/06/06 06:22:48;;;;;;;2.90;2.28;;;15.60;99.90;;;;;;5051389;28;20052;-83
2022/06/06 06:25:19;;;;;;;2.58;2.38;;;15.90;99.90;;;;;;5063227;28;20522;-82
2022/06/06 06:27:48;;;;;;;3.00;2.67;;;16.00;99.90;;;;;;5058987;28;20472;-82
2022/06/06 06:30:16;;;;;;;3.25;3.03;;;16.30;99.90;;;;;;5051405;28;20041;-82
2022/06/06 06:32:53;;;;;;;4.50;2.20;;;16.40;99.90;;;;;;5051541;28;20049;-82
2022/06/06 06:35:32;;;;;;;2.92;2.72;;;16.40;99.90;;;;;;5051653;28;20041;-81
2022/06/06 06:38:21;;;;;;;3.88;2.33;;;16.30;99.90;;;;;;5050779;28;20045;-82
2022/06/06 06:40:58;;;;;;;2.58;2.33;;;16.30;99.90;;;;;;5049418;28;20049;-82
2022/06/06 06:43:33;;;;;;;2.30;2.20;;;16.30;99.90;;;;;;5050148;28;20053;-82
2022/06/06 06:46:09;;;;;;;3.80;2.67;;;16.40;99.90;;;;;;5049360;28;20048;-83
2022/06/06 06:48:42;;;;;;;3.08;2.38;;;16.60;99.90;;;;;;5049122;28;20048;-83
2022/06/06 06:51:26;;;;;;;3.17;2.95;;;16.70;99.90;;;;;;5051475;28;20060;-82
2022/06/06 06:54:13;;;;;;;3.45;2.88;;;16.80;99.90;;;;;;5051018;28;20048;-82
2022/06/06 06:57:24;;;;;;;4.25;2.35;;;16.90;99.90;;;;;;5031300;28;20063;-83
2022/06/06 07:00:20;;;;;;;2.53;1.95;;;16.90;99.90;;;;;;5022101;28;20056;-82
2022/06/06 07:09:25;;;;;;;2.47;2.28;;;17.00;99.90;;;;;;5048660;28;20072;-82
2022/06/06 07:12:12;;;;;;;3.33;3.13;;;17.10;99.90;;;;;;5049687;28;20052;-82
2022/06/06 07:15:10;;;;;;;2.67;2.03;;;17.10;99.90;;;;;;5016150;28;20054;-82
2022/06/06 07:17:45;;;;;;;2.28;2.17;;;17.00;99.90;;;;;;5049923;28;20056;-82
2022/06/06 07:20:16;;;;;;;3.55;2.92;;;17.00;99.90;;;;;;5062800;28;20048;-83
2022/06/06 07:23:03;;;;;;;4.88;2.30;;;17.10;99.90;;;;;;5052281;28;20048;-82
2022/06/06 07:25:42;;;;;;;5.65;3.00;;;17.30;99.90;;;;;;5067242;28;20059;-83
2022/06/06 07:28:13;;;;;;;3.03;2.50;;;17.50;99.90;;;;;;5072445;28;20499;-81
2022/06/06 07:31:06;;;;;;;1.85;1.65;;;17.60;99.90;;;;;;5090354;28;20055;-82
2022/06/06 07:34:04;;;;;;;3.17;2.85;;;17.40;99.90;;;;;;5090617;28;20055;-82
2022/06/06 07:36:53;;;;;;;3.72;2.53;;;17.50;99.90;;;;;;5090561;28;20117;-82
2022/06/06 07:39:52;;;;;;;5.35;4.13;;;17.50;99.90;;;;;;5055219;28;20056;-82
2022/06/06 07:42:36;;;;;;;2.33;2.13;;;17.80;99.90;;;;;;5071909;28;20059;-82
2022/06/06 07:45:41;;;;;;;5.88;2.70;;;18.00;99.90;;;;;;5071897;28;20047;-84
2022/06/06 07:48:39;;;;;;;2.45;2.28;;;18.40;99.90;;;;;;5069770;28;20606;-87
2022/06/06 07:51:34;;;;;;;3.58;2.17;;;18.70;99.90;;;;;;5050327;28;20056;-86
2022/06/06 07:54:48;;;;;;;2.75;2.60;;;18.90;99.90;;;;;;5042054;28;20052;-86
2022/06/06 07:57:15;;;;;;;2.40;2.20;;;19.00;99.90;;;;;;5039718;28;20044;-84
2022/06/06 08:00:03;;;;;;;3.25;2.95;;;18.90;99.90;;;;;;5035249;28;20052;-86
2022/06/06 08:02:47;;;;;;;4.97;2.70;;;18.80;99.90;;;;;;5069616;28;20056;-86
2022/06/06 08:05:31;;;;;;;2.30;2.10;;;18.60;99.90;;;;;;5034521;28;20059;-84
2022/06/06 08:08:27;;;;;;;2.42;2.22;;;18.60;99.90;;;;;;5051521;28;20053;-86
2022/06/06 08:11:04;;;;;;;2.92;2.67;;;18.70;99.90;;;;;;5049660;28;20550;-87
2022/06/06 08:13:37;;;;;;;5.03;3.97;;;18.80;99.90;;;;;;5069213;28;20685;-86
2022/06/06 08:16:06;;;;;;;2.88;2.67;;;19.00;99.90;;;;;;5052287;28;20484;-85
2022/06/06 08:18:49;;;;;;;2.45;2.25;;;19.10;99.90;;;;;;5050992;28;20044;-87
2022/06/06 08:21:36;;;;;;;3.53;2.95;;;18.80;99.90;;;;;;5069143;28;20041;-87
2022/06/06 08:24:07;;;;;;;3.17;2.70;;;18.20;99.90;;;;;;5041574;28;20043;-85
2022/06/06 08:26:57;;;;;;;3.75;2.47;;;17.90;99.90;;;;;;5087716;28;20047;-85
2022/06/06 08:29:27;;;;;;;3.45;2.67;;;17.90;99.90;;;;;;5088852;28;20403;-86
2022/06/06 08:31:54;;;;;;;5.28;2.60;;;17.90;99.90;;;;;;5090006;28;20306;-87
2022/06/06 08:34:22;;;;;;;2.58;2.00;;;18.00;99.90;;;;;;5071290;28;20074;-86
2022/06/06 08:37:08;;;;;;;4.15;2.97;;;18.00;99.90;;;;;;5070771;28;20047;-87
2022/06/06 08:39:57;;;;;;;2.63;2.42;;;18.20;99.90;;;;;;5070136;28;20454;-85
2022/06/06 08:42:40;;;;;;;4.25;2.50;;;18.30;99.90;;;;;;5088758;28;20054;-86
2022/06/06 08:45:50;;;;;;;2.88;2.67;;;18.50;99.90;;;;;;5089082;28;20044;-86
2022/06/06 08:48:23;;;;;;;3.05;2.10;;;18.50;99.90;;;;;;5088928;28;20063;-86
2022/06/06 08:51:18;;;;;;;2.38;2.17;;;18.40;99.90;;;;;;5037566;28;20048;-86
2022/06/06 08:54:09;;;;;;;3.65;2.40;;;18.20;99.90;;;;;;5070637;28;20048;-86
2022/06/06 08:57:02;;;;;;;2.95;2.22;;;18.20;99.90;;;;;;5070446;28;20052;-85
2022/06/06 08:59:33;;;;;;;5.13;2.35;;;18.10;99.90;;;;;;5081943;28;20052;-86
2022/06/06 09:02:07;;;;;;;3.30;3.00;;;18.20;99.90;;;;;;5068672;28;20048;-84
2022/06/06 09:04:56;;;;;;;2.67;2.47;;;18.20;99.90;;;;;;5051410;28;20044;-86
2022/06/06 09:07:42;;;;;;;2.75;2.55;;;18.30;99.90;;;;;;5034458;28;20052;-86
2022/06/06 09:10:20;;;;;;;2.75;2.05;;;18.40;99.90;;;;;;5067051;28;20051;-86
2022/06/06 09:13:04;;;;;;;2.30;2.10;;;18.40;99.90;;;;;;5068557;28;20048;-84
2022/06/06 09:15:45;;;;;;;;;;;18.40;99.90;;;;;;5069383;28;20053;-85
2022/06/06 09:18:18;;;;;;;4.38;2.45;;;18.40;99.90;;;;;;5068213;28;20426;-86
2022/06/06 09:21:04;;;;;;;3.13;2.60;;;18.50;99.90;;;;;;5068226;28;20488;-85
2022/06/06 09:23:44;;;;;;;2.60;2.40;;;18.60;99.90;;;;;;5069365;28;20048;-86
2022/06/06 09:26:18;;;;;;;4.25;3.95;;;18.80;99.90;;;;;;5087148;28;20043;-85
2022/06/06 09:29:11;;;;;;;3.63;2.80;;;19.00;99.90;;;;;;5088265;28;20032;-85
2022/06/06 09:32:43;;;;;;;4.85;2.35;;;19.10;99.90;;;;;;5088675;28;20040;-86
2022/06/06 09:35:41;;;;;;;3.55;2.78;;;19.20;99.90;;;;;;4985546;28;20054;-86
2022/06/06 09:38:13;;;;;;;2.58;2.33;;;19.00;99.90;;;;;;4953650;28;20441;-85
2022/06/06 09:41:05;;;;;;;4.60;2.65;;;19.00;99.90;;;;;;5060787;28;20059;-85
2022/06/06 09:44:20;;;;;;;2.47;2.13;;;19.10;99.90;;;;;;5071601;28;20047;-83
2022/06/06 09:47:14;;;;;;;4.88;2.35;;;19.20;99.90;;;;;;5088536;28;20044;-86
2022/06/06 09:49:48;;;;;;;3.20;2.90;;;19.50;99.90;;;;;;5072469;28;20048;-87
2022/06/06 09:52:49;;;;;;;7.82;3.80;;;19.70;99.90;;;;;;5070648;28;20051;-84
2022/06/06 09:59:19;;;;;;;12.50;4.78;;;19.50;99.90;;;;;;5053166;28;20076;-84
2022/06/06 10:02:04;;;;;;;2.88;2.28;;;19.50;99.90;;;;;;5071564;28;20052;-83
2022/06/06 10:04:53;;;;;;;6.13;2.50;;;19.30;99.90;;;;;;5072327;28;20048;-85
2022/06/06 10:07:27;;;;;;;4.60;3.25;;;19.10;99.90;;;;;;5054059;28;20052;-85
2022/06/06 10:10:17;;;;;;;2.60;2.40;;;19.30;99.90;;;;;;5069280;28;20044;-84
2022/06/06 10:12:50;;;;;;;4.03;2.60;;;19.30;99.90;;;;;;5071418;28;20538;-85
2022/06/06 10:15:57;;;;;;;3.38;3.15;;;19.50;99.90;;;;;;5037675;28;20052;-84
2022/06/06 10:18:54;;;;;;;7.93;2.97;;;19.40;99.90;;;;;;5052932;28;20601;-85
2022/06/06 10:21:50;;;;;;;17.60;3.13;;;19.30;99.90;;;;;;5071196;28;20049;-85
2022/06/06 10:24:27;;;;;;;3.20;2.35;;;19.20;99.90;;;;;;5060695;28;20056;-84
2022/06/06 10:27:03;;;;;;;5.38;2.72;;;19.30;99.90;;;;;;5068492;28;20495;-83
2022/06/06 10:30:13;;;;;;;2.83;2.15;;;19.40;99.90;;;;;;5052698;28;20036;-85
2022/06/06 10:32:59;;;;;;;2.47;2.17;;;19.50;99.90;;;;;;5071106;28;20052;-84
2022/06/06 10:36:01;;;;;;;1.90;1.70;;;19.50;99.90;;;;;;5053509;28;20056;-85
2022/06/06 10:38:49;;;;;;;;;;;19.50;99.90;;;;;;5053133;28;20122;-84
2022/06/06 10:41:28;;;;;;;3.85;2.40;;;19.40;99.90;;;;;;5069331;28;19924;-83
2022/06/06 10:44:13;;;;;;;3.67;2.45;;;19.60;99.90;;;;;;5071551;28;20049;-84
2022/06/06 10:47:24;;;;;;;2.38;2.15;;;19.90;99.90;;;;;;5053186;28;20037;-84
2022/06/06 10:50:00;;;;;;;4.10;2.03;;;20.10;99.90;;;;;;5036596;28;20044;-83
2022/06/06 10:53:25;;;;;;;3.28;2.83;;;20.40;99.90;;;;;;5071184;28;20048;-84
2022/06/06 10:56:18;;;;;;;5.07;1.85;;;20.40;99.90;;;;;;5003184;28;20048;-86
2022/06/06 10:59:25;;;;;;;3.05;1.88;;;20.50;99.90;;;;;;5070693;28;20313;-84
2022/06/06 11:02:11;;;;;;;2.88;2.50;;;20.60;99.90;;;;;;5007982;28;20061;-84
2022/06/06 11:05:29;;;;;;;3.80;3.50;;;20.30;99.90;;;;;;5008109;28;20057;-83
2022/06/06 11:08:18;;;;;;;3.38;2.30;;;20.10;99.90;;;;;;5087126;28;20048;-84
2022/06/06 11:10:52;;;;;;;3.90;2.50;;;20.00;99.90;;;;;;5089034;28;20071;-85
2022/06/06 11:13:32;;;;;;;2.55;2.35;;;20.00;99.90;;;;;;5056169;28;20040;-84
2022/06/06 11:16:47;;;;;;;4.88;2.22;;;20.20;99.90;;;;;;5091194;28;20044;-84
2022/06/06 11:19:31;;;;;;;3.53;2.40;;;20.50;99.90;;;;;;5054203;28;20044;-86
2022/06/06 11:22:07;;;;;;;4.05;2.40;;;20.60;99.90;;;;;;5090434;28;20047;-85
2022/06/06 11:25:01;;;;;;;5.03;2.83;;;20.80;99.90;;;;;;5090861;28;20098;-84
2022/06/06 11:27:35;;;;;;;2.45;2.25;;;20.80;99.90;;;;;;5057069;28;20047;-83
2022/06/06 11:30:17;;;;;;;2.50;2.30;;;20.50;99.90;;;;;;5055518;28;20083;-86
2022/06/06 11:33:23;;;;;;;6.57;2.65;;;20.30;99.90;;;;;;5071969;28;20497;-85
2022/06/06 11:36:06;;;;;;;4.15;3.65;;;20.30;99.90;;;;;;5039664;28;20048;-86
2022/06/06 11:39:23;;;;;;;3.30;2.60;;;20.40;99.90;;;;;;5054825;28;20052;-85
2022/06/06 11:42:13;;;;;;;6.72;2.65;;;20.40;99.90;;;;;;5058214;28;20051;-88
2022/06/06 11:45:19;;;;;;;3.60;2.60;;;20.40;99.90;;;;;;5055216;28;20052;-85
2022/06/06 11:48:16;;;;;;;3.45;3.15;;;20.20;99.90;;;;;;5075369;28;20400;-86
2022/06/06 11:51:02;;;;;;;2.00;1.90;;;20.10;99.90;;;;;;5051562;28;20487;-87
2022/06/06 11:53:52;;;;;;;2.58;2.38;;;20.20;99.90;;;;;;5035345;28;20052;-85
2022/06/06 11:56:46;;;;;;;2.88;2.65;;;20.40;99.90;;;;;;5050744;28;20052;-85
2022/06/06 11:59:32;;;;;;;5.55;2.45;;;20.70;99.90;;;;;;5017082;28;20056;-84
2022/06/06 12:02:20;;;;;;;2.85;2.00;;;20.80;99.90;;;;;;5035226;28;20051;-86
2022/06/06 12:05:18;;;;;;;2.58;2.10;;;20.90;99.90;;;;;;5051031;28;20051;-88
2022/06/06 12:07:51;;;;;;;2.88;2.25;;;21.10;99.90;;;;;;5069497;28;20040;-87
2022/06/06 12:10:26;;;;;;;2.75;2.15;;;21.30;99.90;;;;;;5049913;28;20043;-85
2022/06/06 12:13:21;;;;;;;4.03;2.10;;;21.50;99.90;;;;;;5068462;28;20503;-85
2022/06/06 12:16:20;;;;;;;2.42;2.10;;;21.70;99.90;;;;;;5069309;28;20056;-85
2022/06/06 12:19:17;;;;;;;1.92;1.83;;;21.50;99.90;;;;;;5068843;28;20056;-86
2022/06/06 12:22:19;;;;;;;5.85;2.45;;;21.20;99.90;;;;;;5051046;28;20048;-85
2022/06/06 12:25:12;;;;;;;3.55;2.10;;;20.90;99.90;;;;;;5079065;28;20059;-83
2022/06/06 12:27:46;;;;;;;15.20;3.20;;;20.70;99.90;;;;;;5067212;28;20048;-84
2022/06/06 12:30:48;;;;;;;3.55;3.00;;;20.50;99.90;;;;;;5068860;28;20653;-85
2022/06/06 12:33:43;;;;;;;2.22;1.92;;;20.40;99.90;;;;;;5033970;28;20036;-87
2022/06/06 12:36:27;;;;;;;1.95;1.70;;;20.60;99.90;;;;;;5038486;28;20063;-88
2022/06/06 12:39:01;;;;;;;4.28;3.05;;;21.00;99.90;;;;;;5034071;28;20415;-86
2022/06/06 12:41:41;;;;;;;3.30;2.05;;;21.30;99.90;;;;;;5049104;28;20056;-86
2022/06/06 12:44:28;;;;;;;4.38;2.55;;;21.40;99.90;;;;;;5051174;28;20446;-85
2022/06/06 12:47:10;;;;;;;6.15;2.40;;;21.70;99.90;;;;;;5050862;28;20407;-86
2022/06/06 12:49:48;;;;;;;1.92;1.83;;;21.40;99.90;;;;;;5068155;28;20051;-86
2022/06/06 12:52:41;;;;;;;4.47;2.20;;;21.30;99.90;;;;;;5069609;28;20467;-86
2022/06/06 12:55:31;;;;;;;2.35;2.00;;;21.30;99.90;;;;;;5066733;28;20455;-85
2022/06/06 12:58:32;;;;;;;3.67;1.90;;;21.10;99.90;;;;;;5068163;28;20037;-85
2022/06/06 13:01:38;;;;;;;3.40;3.13;;;21.00;99.90;;;;;;5068443;28;20051;-85
2022/06/06 13:04:06;;;;;;;2.85;2.40;;;20.80;99.90;;;;;;5069168;28;20518;-85
2022/06/06 13:07:01;;;;;;;4.57;2.10;;;20.60;99.90;;;;;;5068391;28;20064;-86
2022/06/06 13:10:07;;;;;;;13.27;2.83;;;20.50;99.90;;;;;;5067713;28;20048;-84
2022/06/06 13:13:31;;;;;;;4.25;2.55;;;20.40;99.90;;;;;;5069026;28;20538;-85
2022/06/06 13:16:25;;;;;;;3.75;2.40;;;20.40;99.90;;;;;;4989627;28;20038;-87
2022/06/06 13:19:00;;;;;;;3.00;2.67;;;20.40;99.90;;;;;;5005276;28;20050;-89
2022/06/06 13:21:43;;;;;;;2.58;2.38;;;20.40;99.90;;;;;;5024042;28;20430;-88
2022/06/06 13:24:20;;;;;;;2.40;2.20;;;20.30;99.90;;;;;;5020354;28;20528;-87
2022/06/06 13:26:53;;;;;;;2.47;2.38;;;20.50;99.90;;;;;;5070209;28;20037;-88
2022/06/06 13:29:32;;;;;;;19.40;3.10;;;20.80;99.90;;;;;;5071957;28;20036;-86
2022/06/06 13:32:01;;;;;;;3.22;2.92;;;21.20;99.90;;;;;;5072825;28;20475;-89
2022/06/06 13:35:21;;;;;;;2.20;2.05;;;21.60;99.90;;;;;;5072304;28;20053;-87
2022/06/06 13:38:01;;;;;;;2.63;2.38;;;21.70;99.90;;;;;;5028787;28;20512;-88
2022/06/06 13:40:42;;;;;;;2.28;1.92;;;21.80;99.90;;;;;;5053193;28;20055;-85
2022/06/06 13:43:13;;;;;;;2.10;2.00;;;21.90;99.90;;;;;;5052816;28;20049;-87
2022/06/06 13:46:09;;;;;;;3.05;1.85;;;22.00;99.90;;;;;;5054320;28;20044;-87
2022/06/06 13:48:48;;;;;;;2.20;2.03;;;21.90;99.90;;;;;;5040561;28;20427;-89
2022/06/06 13:51:38;;;;;;;1.98;1.88;;;22.00;99.90;;;;;;5036323;28;20052;-86
2022/06/06 13:54:29;;;;;;;6.80;2.35;;;22.20;99.90;;;;;;5032748;28;20040;-86
2022/06/06 13:57:06;;;;;;;5.63;2.40;;;22.10;99.90;;;;;;5070474;28;20607;-86
2022/06/06 13:59:59;;;;;;;2.65;1.95;;;22.10;99.90;;;;;;5053807;28;20056;-84
2022/06/06 14:02:44;;;;;;;2.22;2.03;;;21.90;99.90;;;;;;5071916;28;20602;-86
2022/06/06 14:05:28;;;;;;;2.58;2.38;;;21.60;99.90;;;;;;5053570;28;20048;-86
2022/06/06 14:08:05;;;;;;;2.55;2.05;;;21.40;99.90;;;;;;5071539;28;20040;-86
2022/06/06 14:10:56;;;;;;;2.70;2.50;;;21.30;99.90;;;;;;5051458;28;20040;-85
2022/06/06 14:13:56;;;;;;;1.88;1.63;;;21.50;99.90;;;;;;5071487;28;20048;-85
2022/06/06 14:16:44;;;;;;;3.20;2.75;;;21.60;99.90;;;;;;5039245;28;20419;-86
2022/06/06 14:19:18;;;;;;;3.03;2.35;;;21.60;99.90;;;;;;5033464;28;20052;-87
2022/06/06 14:22:06;;;;;;;4.82;2.13;;;21.40;99.90;;;;;;5033064;28;20067;-86
2022/06/06 14:24:36;;;;;;;1.85;1.75;;;21.40;99.90;;;;;;5059187;28;20044;-84
2022/06/06 14:27:10;;;;;;;3.90;2.20;;;21.50;99.90;;;;;;5064818;28;20049;-85
2022/06/06 14:29:52;;;;;;;2.38;2.20;;;21.50;99.90;;;;;;5049296;28;20057;-86